Time;durP1;ratioP1;P1;durP2;ratioP2;P2;SDS_P1;SDS_P2;PMS_P1;PMS_P2;Temp;Humidity;BMP_temperature;BMP_pressure;BME280_temperature;BME280_humidity;BME280_pressure;Samples;Min_cycle;Max_cycle;Signal;HPM_P1;HPM_P2
2021/12/08 00:00:50;;;;;;;8.38;3.88;;;2.50;99.90;;;;;;5113615;27;20052;-65
2021/12/08 00:03:16;;;;;;;7.80;3.72;;;2.50;99.90;;;;;;5113688;27;20492;-65
2021/12/08 00:05:44;;;;;;;8.02;3.85;;;2.40;99.90;;;;;;5113741;28;20055;-65
2021/12/08 00:08:13;;;;;;;7.20;3.50;;;2.40;99.90;;;;;;5113882;27;20052;-65
2021/12/08 00:13:33;;;;;;;8.68;4.85;;;2.20;99.90;;;;;;5113372;27;20051;-65
2021/12/08 00:16:03;;;;;;;7.70;3.67;;;2.20;99.90;;;;;;5113697;28;20040;-66
2021/12/08 00:18:32;;;;;;;12.38;4.97;;;2.20;99.90;;;;;;5113900;28;20067;-64
2021/12/08 00:21:03;;;;;;;8.40;3.90;;;2.20;99.90;;;;;;5113687;28;20124;-65
2021/12/08 00:23:29;;;;;;;8.60;3.10;;;2.20;99.90;;;;;;5113823;28;20048;-65
2021/12/08 00:25:56;;;;;;;11.07;4.30;;;2.60;99.90;;;;;;5113307;28;20239;-64
2021/12/08 00:28:23;;;;;;;9.85;3.58;;;2.20;99.90;;;;;;5111814;28;20459;-65
2021/12/08 00:30:53;;;;;;;12.85;4.07;;;2.20;99.90;;;;;;5113065;28;20040;-66
2021/12/08 00:33:20;;;;;;;9.98;4.93;;;2.20;99.90;;;;;;5113367;28;20408;-65
2021/12/08 00:35:48;;;;;;;6.88;3.90;;;2.30;99.90;;;;;;5113186;28;20048;-65
2021/12/08 00:38:17;;;;;;;12.13;4.90;;;2.30;99.90;;;;;;5112483;28;20130;-65
2021/12/08 00:40:43;;;;;;;11.15;3.85;;;2.30;99.90;;;;;;5113068;28;20051;-66
2021/12/08 00:43:14;;;;;;;10.95;4.20;;;2.30;99.90;;;;;;5113298;28;20046;-65
2021/12/08 00:45:40;;;;;;;11.38;4.88;;;2.30;99.90;;;;;;5112003;28;20036;-79
2021/12/08 00:48:07;;;;;;;11.45;4.85;;;2.30;99.90;;;;;;5113343;28;20053;-66
2021/12/08 00:50:35;;;;;;;10.05;4.60;;;2.30;99.90;;;;;;5113246;28;20089;-66
2021/12/08 00:53:01;;;;;;;11.23;4.78;;;2.30;99.90;;;;;;5112914;28;20054;-67
2021/12/08 00:55:28;;;;;;;10.50;4.43;;;2.50;99.90;;;;;;5113192;28;20101;-66
2021/12/08 00:57:55;;;;;;;11.82;4.75;;;2.40;99.90;;;;;;5111460;28;20051;-65
2021/12/08 01:00:32;;;;;;;11.88;3.60;;;2.40;99.90;;;;;;5094557;28;20503;-69
2021/12/08 01:02:58;;;;;;;12.43;4.05;;;2.40;99.90;;;;;;5112831;28;20055;-67
2021/12/08 01:05:29;;;;;;;14.63;4.75;;;2.50;99.90;;;;;;5113135;28;20127;-66
2021/12/08 01:07:55;;;;;;;6.15;3.80;;;2.40;99.90;;;;;;5112501;28;20051;-64
2021/12/08 01:10:23;;;;;;;6.35;4.03;;;2.50;99.90;;;;;;5111703;28;20059;-66
2021/12/08 01:12:50;;;;;;;10.70;3.67;;;2.50;99.90;;;;;;5112277;28;20123;-66
2021/12/08 01:15:17;;;;;;;8.52;4.30;;;2.60;99.90;;;;;;5111404;28;20063;-65
2021/12/08 01:17:44;;;;;;;7.65;4.40;;;2.50;99.90;;;;;;5112371;28;20047;-65
2021/12/08 01:20:14;;;;;;;6.57;3.72;;;2.60;99.90;;;;;;5112551;28;20047;-64
2021/12/08 01:22:41;;;;;;;10.30;3.85;;;2.60;99.90;;;;;;5093942;28;20393;-64
2021/12/08 01:25:07;;;;;;;9.25;3.95;;;2.70;99.90;;;;;;5111283;28;20054;-68
2021/12/08 01:27:33;;;;;;;7.15;3.70;;;2.70;99.90;;;;;;5112391;28;20108;-66
2021/12/08 01:29:59;;;;;;;7.05;3.33;;;2.70;99.90;;;;;;5110861;28;20101;-65
2021/12/08 01:32:26;;;;;;;5.72;3.20;;;2.70;99.90;;;;;;5112204;28;20047;-65
2021/12/08 01:34:53;;;;;;;10.65;4.65;;;2.80;99.90;;;;;;5110941;28;20081;-67
2021/12/08 01:37:20;;;;;;;8.25;4.07;;;2.80;99.90;;;;;;5094065;28;20134;-67
2021/12/08 01:39:45;;;;;;;8.32;4.30;;;2.80;99.90;;;;;;5112080;28;20101;-68
2021/12/08 01:42:17;;;;;;;6.55;3.33;;;2.90;99.90;;;;;;5093732;28;20047;-66
2021/12/08 01:47:29;;;;;;;7.65;3.90;;;2.90;99.90;;;;;;5112147;28;20404;-66
2021/12/08 01:49:55;;;;;;;7.32;4.15;;;3.00;99.90;;;;;;5111705;28;20082;-65
2021/12/08 01:52:21;;;;;;;8.68;3.58;;;3.10;99.90;;;;;;5110947;28;20461;-65
2021/12/08 01:54:47;;;;;;;13.93;4.25;;;3.00;99.90;;;;;;5110818;28;20044;-65
2021/12/08 01:57:13;;;;;;;5.05;3.10;;;3.00;99.90;;;;;;5111684;28;20043;-67
2021/12/08 01:59:39;;;;;;;6.93;3.60;;;3.00;99.90;;;;;;5111805;28;20043;-65
2021/12/08 02:02:05;;;;;;;4.93;2.75;;;3.00;99.90;;;;;;5110054;28;20523;-64
2021/12/08 02:04:31;;;;;;;6.95;3.53;;;3.00;99.90;;;;;;5093849;28;20130;-65
2021/12/08 02:06:58;;;;;;;10.10;3.90;;;3.00;99.90;;;;;;5111560;28;20080;-70
2021/12/08 02:09:24;;;;;;;9.40;3.80;;;3.10;99.90;;;;;;5111969;28;20040;-65
2021/12/08 02:11:54;;;;;;;7.90;3.35;;;3.10;99.90;;;;;;5111757;28;20051;-71
2021/12/08 02:14:20;;;;;;;6.93;3.35;;;3.10;99.90;;;;;;5094081;28;20489;-71
2021/12/08 02:16:48;;;;;;;7.25;3.78;;;3.20;99.90;;;;;;5111902;28;20047;-71
2021/12/08 02:19:14;;;;;;;9.95;4.10;;;3.20;99.90;;;;;;5110646;28;20048;-71
2021/12/08 02:21:41;;;;;;;8.02;4.22;;;3.20;99.90;;;;;;5128066;28;20054;-71
2021/12/08 02:24:13;;;;;;;7.28;4.32;;;3.20;99.90;;;;;;5111579;28;20050;-71
2021/12/08 02:26:42;;;;;;;9.02;4.22;;;3.30;99.90;;;;;;5127822;28;20035;-72
2021/12/08 02:29:19;;;;;;;6.90;3.92;;;3.20;99.90;;;;;;5110732;28;20055;-72
2021/12/08 02:32:04;;;;;;;5.78;3.63;;;3.40;99.90;;;;;;5110956;28;20078;-71
2021/12/08 02:48:33;;;;;;;7.10;4.15;;;3.40;99.90;;;;;;5114441;28;20039;-72
2021/12/08 02:51:00;;;;;;;4.97;3.28;;;3.30;99.90;;;;;;5114366;28;20115;-71
2021/12/08 02:53:25;;;;;;;6.72;3.60;;;3.30;99.90;;;;;;5114328;28;20123;-71
2021/12/08 02:55:52;;;;;;;9.57;3.90;;;3.40;99.90;;;;;;5131250;27;20131;-71
2021/12/08 02:58:18;;;;;;;5.45;3.33;;;3.40;99.90;;;;;;5114028;28;20160;-72
2021/12/08 03:00:59;;;;;;;10.55;5.82;;;3.30;99.90;;;;;;5113661;28;20051;-71
2021/12/08 03:03:26;;;;;;;6.47;4.07;;;3.40;99.90;;;;;;5114388;28;20187;-71
2021/12/08 03:05:52;;;;;;;6.53;3.42;;;3.40;99.90;;;;;;5113931;28;20047;-71
2021/12/08 03:08:17;;;;;;;5.40;3.30;;;3.40;99.90;;;;;;5113951;28;20047;-71
2021/12/08 03:10:46;;;;;;;13.32;4.15;;;3.70;99.90;;;;;;5114292;28;20109;-71
2021/12/08 03:13:13;;;;;;;9.85;4.20;;;3.40;99.90;;;;;;5113685;28;20456;-71
2021/12/08 03:15:40;;;;;;;10.50;3.88;;;3.40;99.90;;;;;;5114080;28;20051;-71
2021/12/08 03:18:06;;;;;;;8.07;3.50;;;3.40;99.90;;;;;;5113637;28;20056;-71
2021/12/08 03:20:43;;;;;;;6.47;4.15;;;3.40;99.90;;;;;;5113534;28;20405;-70
2021/12/08 03:23:15;;;;;;;5.55;4.43;;;3.40;99.90;;;;;;5096713;28;20461;-71
2021/12/08 03:25:43;;;;;;;6.18;4.10;;;3.40;99.90;;;;;;5114951;28;20059;-71
2021/12/08 03:28:22;;;;;;;10.52;4.45;;;3.50;99.90;;;;;;5113519;28;20059;-72
2021/12/08 03:31:04;;;;;;;7.60;4.30;;;3.50;99.90;;;;;;5114004;28;20112;-71
2021/12/08 03:33:31;;;;;;;7.15;3.95;;;3.50;99.90;;;;;;5113776;28;20051;-71
2021/12/08 03:35:58;;;;;;;6.22;3.53;;;3.50;99.90;;;;;;5113514;28;20095;-70
2021/12/08 03:38:25;;;;;;;8.40;5.10;;;3.50;99.90;;;;;;5113326;28;20412;-70
2021/12/08 03:40:51;;;;;;;8.23;3.58;;;3.60;99.90;;;;;;5113368;28;20504;-71
2021/12/08 03:43:18;;;;;;;6.72;4.32;;;3.50;99.90;;;;;;5113151;28;20054;-71
2021/12/08 03:45:47;;;;;;;9.48;6.35;;;3.50;99.90;;;;;;5113507;28;20051;-71
2021/12/08 03:48:31;;;;;;;8.10;4.47;;;3.50;99.90;;;;;;5113030;28;20237;-70
2021/12/08 03:50:57;;;;;;;9.65;4.43;;;3.50;99.90;;;;;;5113569;28;20505;-71
2021/12/08 03:53:23;;;;;;;12.68;5.88;;;3.50;99.90;;;;;;5113061;28;20088;-71
2021/12/08 03:55:51;;;;;;;10.88;5.65;;;3.60;99.90;;;;;;5114296;28;20135;-71
2021/12/08 03:58:18;;;;;;;7.10;4.65;;;3.50;99.90;;;;;;5095900;28;20131;-72
2021/12/08 04:00:46;;;;;;;5.75;4.28;;;3.50;99.90;;;;;;5112762;28;21021;-71
2021/12/08 04:03:12;;;;;;;8.48;5.13;;;3.60;99.90;;;;;;5112901;28;20056;-71
2021/12/08 04:06:03;;;;;;;7.13;4.78;;;3.60;99.90;;;;;;5113127;28;20036;-72
2021/12/08 04:08:40;;;;;;;10.20;4.80;;;3.70;99.90;;;;;;5112289;28;20066;-71
2021/12/08 04:11:08;;;;;;;7.50;4.30;;;3.70;99.90;;;;;;5096191;28;20051;-71
2021/12/08 04:14:02;;;;;;;11.18;6.38;;;3.70;99.90;;;;;;5112463;28;20047;-71
2021/12/08 04:16:34;;;;;;;11.30;5.63;;;3.70;99.90;;;;;;5107508;27;20055;-71
2021/12/08 04:19:01;;;;;;;7.78;3.90;;;3.70;99.90;;;;;;5113560;28;20087;-71
2021/12/08 04:21:28;;;;;;;9.50;6.80;;;3.80;99.90;;;;;;5112480;28;20055;-71
2021/12/08 04:23:54;;;;;;;8.48;5.45;;;3.80;99.90;;;;;;5112709;28;20093;-71
2021/12/08 04:26:28;;;;;;;12.15;6.18;;;3.80;99.90;;;;;;5113459;28;20075;-71
2021/12/08 04:28:54;;;;;;;11.50;6.95;;;3.80;99.90;;;;;;5112661;28;20130;-71
2021/12/08 04:31:27;;;;;;;12.15;6.63;;;3.80;99.90;;;;;;5113256;28;20051;-70
2021/12/08 04:34:00;;;;;;;6.97;4.88;;;3.90;99.90;;;;;;5095349;28;20043;-71
2021/12/08 04:36:31;;;;;;;13.75;6.03;;;3.90;99.90;;;;;;5113190;28;20055;-71
2021/12/08 04:38:59;;;;;;;10.20;5.78;;;3.90;99.90;;;;;;5112442;28;20130;-71
2021/12/08 04:41:36;;;;;;;9.63;6.57;;;3.90;99.90;;;;;;5112036;28;20102;-71
2021/12/08 04:44:20;;;;;;;11.38;7.82;;;4.00;99.90;;;;;;5112142;28;20044;-71
2021/12/08 05:00:42;;;;;;;9.73;7.47;;;4.00;99.90;;;;;;5111551;28;20047;-71
2021/12/08 05:03:34;;;;;;;8.82;6.45;;;4.10;99.90;;;;;;5111632;28;20040;-71
2021/12/08 05:08:48;;;;;;;9.93;5.95;;;4.10;99.90;;;;;;5111923;28;20400;-71
2021/12/08 05:11:43;;;;;;;8.98;6.43;;;4.20;99.90;;;;;;5113080;28;20039;-71
2021/12/08 05:14:38;;;;;;;13.07;7.90;;;4.20;99.90;;;;;;5109579;28;20161;-71
2021/12/08 05:17:12;;;;;;;9.63;5.45;;;4.20;99.90;;;;;;5082323;28;20055;-71
2021/12/08 05:19:46;;;;;;;9.47;6.30;;;4.20;99.90;;;;;;5111424;28;20119;-71
2021/12/08 05:22:17;;;;;;;13.82;8.20;;;4.20;99.90;;;;;;5111627;28;20296;-71
2021/12/08 05:24:48;;;;;;;12.27;6.43;;;4.20;99.90;;;;;;5111437;28;20047;-71
2021/12/08 05:27:25;;;;;;;10.90;7.30;;;4.30;99.90;;;;;;5094731;28;20062;-72
2021/12/08 05:29:59;;;;;;;10.05;6.40;;;4.30;99.90;;;;;;5111626;28;20090;-71
2021/12/08 05:32:25;;;;;;;8.68;5.78;;;4.30;99.90;;;;;;5111320;28;20430;-71
2021/12/08 05:34:51;;;;;;;12.05;8.25;;;4.40;99.90;;;;;;5128493;27;20184;-70
2021/12/08 05:37:19;;;;;;;11.13;7.60;;;4.40;99.90;;;;;;5111517;28;20048;-71
2021/12/08 05:39:46;;;;;;;10.38;7.45;;;4.40;99.90;;;;;;5110961;28;20047;-71
2021/12/08 05:42:17;;;;;;;15.82;8.18;;;4.50;99.90;;;;;;5112168;28;20503;-71
2021/12/08 05:44:43;;;;;;;12.25;9.40;;;4.60;99.90;;;;;;5112111;28;20052;-71
2021/12/08 05:47:17;;;;;;;11.38;7.43;;;4.50;99.90;;;;;;5111306;28;20476;-71
2021/12/08 05:49:43;;;;;;;10.52;6.20;;;4.60;99.90;;;;;;5110843;28;20455;-70
2021/12/08 05:52:09;;;;;;;7.32;5.55;;;4.60;99.90;;;;;;5094344;28;20058;-71
2021/12/08 05:54:39;;;;;;;9.15;6.85;;;4.60;99.90;;;;;;5110291;28;20135;-72
2021/12/08 05:57:12;;;;;;;9.93;7.40;;;4.60;99.90;;;;;;5094383;28;20051;-71
2021/12/08 05:59:38;;;;;;;10.45;6.45;;;4.70;99.90;;;;;;5111796;28;20385;-71
2021/12/08 06:02:13;;;;;;;13.57;7.32;;;4.70;99.90;;;;;;5110806;28;20504;-72
2021/12/08 06:04:39;;;;;;;9.57;6.70;;;4.80;99.90;;;;;;5111675;28;20562;-71
2021/12/08 06:07:06;;;;;;;10.45;7.30;;;4.80;99.90;;;;;;5094230;28;20054;-71
2021/12/08 06:09:34;;;;;;;13.82;8.52;;;4.80;99.90;;;;;;5110759;28;20514;-72
2021/12/08 06:12:01;;;;;;;10.73;7.25;;;4.80;99.90;;;;;;5113114;28;20096;-71
2021/12/08 06:14:32;;;;;;;9.15;5.03;;;4.90;99.90;;;;;;5115272;28;20048;-72
2021/12/08 06:17:02;;;;;;;8.90;6.85;;;4.90;99.90;;;;;;5115260;28;20055;-72
2021/12/08 06:19:29;;;;;;;10.60;5.65;;;4.90;99.90;;;;;;5115219;28;20127;-71
2021/12/08 06:21:55;;;;;;;9.05;5.53;;;4.90;99.90;;;;;;5114618;28;20056;-71
2021/12/08 06:24:21;;;;;;;12.07;6.53;;;4.90;99.90;;;;;;5097956;28;20086;-72
2021/12/08 06:26:49;;;;;;;13.13;8.05;;;5.00;99.90;;;;;;5131766;27;20117;-71
2021/12/08 06:29:17;;;;;;;9.38;5.85;;;5.00;99.90;;;;;;5116166;28;20236;-72
2021/12/08 06:31:45;;;;;;;9.55;6.70;;;5.00;99.90;;;;;;5097663;28;20151;-71
2021/12/08 06:34:11;;;;;;;11.25;6.80;;;5.00;99.90;;;;;;5114853;28;20048;-72
2021/12/08 06:36:46;;;;;;;11.57;6.97;;;5.00;99.90;;;;;;5114518;28;20054;-72
2021/12/08 06:39:17;;;;;;;12.18;6.38;;;5.00;99.90;;;;;;5114945;28;20079;-70
2021/12/08 06:41:47;;;;;;;16.02;7.38;;;5.00;99.90;;;;;;5115832;28;20046;-71
2021/12/08 06:44:17;;;;;;;10.63;6.10;;;5.00;99.90;;;;;;5114631;28;20068;-71
2021/12/08 06:46:45;;;;;;;10.07;5.82;;;5.10;99.90;;;;;;5114575;28;20100;-72
2021/12/08 06:49:13;;;;;;;9.65;5.88;;;5.20;99.90;;;;;;5114430;28;20524;-71
2021/12/08 06:51:43;;;;;;;8.45;5.50;;;5.10;99.90;;;;;;5114405;28;20110;-72
2021/12/08 06:54:22;;;;;;;8.75;5.45;;;5.20;99.90;;;;;;5115797;28;20493;-72
2021/12/08 06:56:55;;;;;;;7.82;4.47;;;5.20;99.90;;;;;;5115383;28;20071;-70
2021/12/08 06:59:24;;;;;;;9.30;6.32;;;5.20;99.90;;;;;;5114604;28;20139;-72
2021/12/08 07:02:05;;;;;;;8.98;5.60;;;5.20;99.90;;;;;;5114476;28;20201;-71
2021/12/08 07:04:35;;;;;;;11.20;5.03;;;5.20;99.90;;;;;;5114462;28;20434;-72
2021/12/08 07:07:19;;;;;;;8.52;4.28;;;5.10;99.90;;;;;;5113807;28;20132;-72
2021/12/08 07:09:49;;;;;;;7.05;5.18;;;5.10;99.90;;;;;;5114957;28;20501;-71
2021/12/08 07:12:24;;;;;;;6.13;4.20;;;5.10;99.90;;;;;;5115099;28;20047;-72
2021/12/08 07:15:06;;;;;;;7.95;5.93;;;5.10;99.90;;;;;;5113885;28;20048;-71
2021/12/08 07:17:35;;;;;;;8.00;5.15;;;5.00;99.90;;;;;;5113917;28;20050;-70
2021/12/08 07:20:13;;;;;;;8.50;4.75;;;5.00;99.90;;;;;;5114710;28;20222;-71
2021/12/08 07:22:41;;;;;;;10.90;5.10;;;5.00;99.90;;;;;;5113635;28;20047;-71
2021/12/08 07:25:07;;;;;;;11.30;5.55;;;4.90;99.90;;;;;;5113677;28;20102;-70
2021/12/08 07:27:35;;;;;;;8.82;5.22;;;5.00;99.90;;;;;;5113555;28;20058;-71
2021/12/08 07:30:08;;;;;;;8.77;4.72;;;4.90;99.90;;;;;;5113266;28;20103;-71
2021/12/08 07:32:37;;;;;;;10.48;5.93;;;4.90;99.90;;;;;;5113661;28;20042;-70
2021/12/08 07:35:08;;;;;;;6.60;4.47;;;4.90;99.90;;;;;;5113037;28;20415;-70
2021/12/08 07:37:37;;;;;;;7.97;4.30;;;4.90;99.90;;;;;;5114004;28;20134;-70
2021/12/08 07:40:20;;;;;;;9.23;5.47;;;4.90;99.90;;;;;;5111873;28;20044;-71
2021/12/08 07:43:02;;;;;;;7.28;3.97;;;5.00;99.90;;;;;;5113258;28;20385;-71
2021/12/08 07:45:45;;;;;;;8.80;4.47;;;4.90;99.90;;;;;;5114738;28;20051;-69
2021/12/08 07:48:17;;;;;;;9.77;4.72;;;4.90;99.90;;;;;;5111221;28;20069;-70
2021/12/08 07:50:51;;;;;;;6.03;3.67;;;4.90;99.90;;;;;;5114267;28;20122;-71
2021/12/08 07:53:21;;;;;;;10.50;4.50;;;4.90;99.90;;;;;;5112898;28;20047;-68
2021/12/08 07:55:50;;;;;;;7.93;3.63;;;4.90;99.90;;;;;;5112878;28;20108;-70
2021/12/08 07:58:18;;;;;;;6.65;4.43;;;5.30;99.90;;;;;;5096016;28;20059;-70
2021/12/08 08:01:02;;;;;;;7.35;3.53;;;5.00;99.90;;;;;;5112423;28;20047;-71
2021/12/08 08:03:31;;;;;;;8.25;3.30;;;4.90;99.90;;;;;;5112789;28;20500;-71
2021/12/08 08:05:59;;;;;;;10.43;3.75;;;4.90;99.90;;;;;;5112429;28;20134;-71
2021/12/08 08:08:30;;;;;;;7.10;3.38;;;5.00;99.90;;;;;;5113957;28;20048;-71
2021/12/08 08:11:00;;;;;;;4.32;2.85;;;5.00;99.90;;;;;;5113797;28;20050;-70
2021/12/08 08:13:28;;;;;;;13.20;3.50;;;5.00;99.90;;;;;;5114028;28;20047;-70
2021/12/08 08:16:04;;;;;;;5.57;2.72;;;5.00;99.90;;;;;;5113369;28;20501;-70
2021/12/08 08:18:35;;;;;;;4.85;2.63;;;5.00;99.90;;;;;;5096204;28;20047;-71
2021/12/08 08:21:06;;;;;;;8.00;3.17;;;5.00;99.90;;;;;;5111815;28;20048;-69
2021/12/08 08:23:32;;;;;;;8.18;2.92;;;5.00;99.90;;;;;;5113006;28;20043;-71
2021/12/08 08:26:04;;;;;;;8.27;2.95;;;5.00;99.90;;;;;;5112371;28;20047;-70
2021/12/08 08:28:31;;;;;;;11.32;3.30;;;5.00;99.90;;;;;;5112558;28;20047;-70
2021/12/08 08:31:10;;;;;;;9.85;3.00;;;5.00;99.90;;;;;;5111981;28;20054;-71
2021/12/08 08:33:38;;;;;;;6.22;2.88;;;5.00;99.90;;;;;;5112212;28;20104;-70
2021/12/08 08:36:08;;;;;;;4.65;2.45;;;5.10;99.90;;;;;;5111510;28;20048;-71
2021/12/08 08:38:41;;;;;;;13.07;3.40;;;5.10;99.90;;;;;;5112223;28;20047;-70
2021/12/08 08:41:15;;;;;;;5.13;2.88;;;5.10;99.90;;;;;;5094556;28;20048;-70
2021/12/08 08:43:43;;;;;;;6.93;3.33;;;5.10;99.90;;;;;;5112164;28;20052;-69
2021/12/08 08:46:16;;;;;;;9.63;3.63;;;5.20;99.90;;;;;;5112969;28;20043;-70
2021/12/08 08:48:55;;;;;;;8.52;2.85;;;5.10;99.90;;;;;;5112216;28;20058;-69
2021/12/08 08:51:37;;;;;;;5.40;2.45;;;5.20;99.90;;;;;;5095226;28;20044;-69
2021/12/08 08:54:08;;;;;;;8.57;3.20;;;5.20;99.90;;;;;;5112252;28;20055;-68
2021/12/08 08:56:38;;;;;;;8.07;3.50;;;5.20;99.90;;;;;;5111768;28;20061;-67
2021/12/08 08:59:12;;;;;;;6.07;2.83;;;5.20;99.90;;;;;;5111900;28;20052;-67
2021/12/08 09:01:42;;;;;;;4.97;2.28;;;5.20;99.90;;;;;;5112276;28;20051;-67
2021/12/08 09:04:32;;;;;;;7.75;2.70;;;5.20;99.90;;;;;;5111102;28;20401;-63
2021/12/08 09:07:04;;;;;;;7.47;3.00;;;5.40;99.90;;;;;;5110939;28;20151;-63
2021/12/08 09:09:39;;;;;;;4.22;1.92;;;5.30;99.90;;;;;;5111742;28;20439;-64
2021/12/08 09:12:19;;;;;;;8.77;2.75;;;5.40;99.90;;;;;;5112543;28;20065;-64
2021/12/08 09:15:05;;;;;;;8.00;2.72;;;5.50;99.90;;;;;;5112551;28;20135;-64
2021/12/08 09:17:47;;;;;;;4.40;1.88;;;5.50;99.90;;;;;;5112755;28;20518;-64
2021/12/08 09:20:27;;;;;;;9.32;3.03;;;5.50;99.90;;;;;;5112291;28;20075;-63
2021/12/08 09:23:00;;;;;;;3.63;2.05;;;5.50;99.90;;;;;;5111530;28;20043;-64
2021/12/08 09:25:54;;;;;;;7.75;2.63;;;5.40;99.90;;;;;;5112162;28;20043;-66
2021/12/08 09:28:28;;;;;;;7.70;2.67;;;5.40;99.90;;;;;;5112141;28;20043;-65
2021/12/08 09:31:02;;;;;;;8.75;2.50;;;5.50;99.90;;;;;;5111441;28;20061;-65
2021/12/08 09:33:38;;;;;;;4.38;2.25;;;5.40;99.90;;;;;;5111369;28;20372;-66
2021/12/08 09:36:09;;;;;;;6.65;2.50;;;5.50;99.90;;;;;;5111057;28;20040;-67
2021/12/08 09:38:43;;;;;;;10.30;2.60;;;5.50;99.90;;;;;;5112354;28;20108;-67
2021/12/08 09:41:18;;;;;;;;;;;5.50;99.90;;;;;;5111151;28;20043;-65
2021/12/08 09:43:52;;;;;;;5.85;2.63;;;5.50;99.90;;;;;;5111057;28;19976;-67
2021/12/08 09:46:41;;;;;;;7.72;2.22;;;5.50;99.90;;;;;;5092972;28;20096;-67
2021/12/08 09:49:08;;;;;;;10.77;2.40;;;5.50;99.90;;;;;;5110764;28;20056;-67
2021/12/08 09:51:35;;;;;;;10.75;2.33;;;5.50;99.90;;;;;;5111065;28;20065;-65
2021/12/08 09:54:01;;;;;;;9.80;2.58;;;5.50;99.90;;;;;;5111041;28;20049;-65
2021/12/08 09:56:29;;;;;;;9.45;2.38;;;5.50;99.90;;;;;;5110699;28;20130;-65
2021/12/08 09:58:56;;;;;;;6.65;2.03;;;5.50;99.90;;;;;;5110878;28;20138;-66
2021/12/08 10:01:23;;;;;;;5.93;2.30;;;5.50;99.90;;;;;;5109995;28;20070;-66
2021/12/08 10:03:51;;;;;;;8.90;2.65;;;5.60;99.90;;;;;;5093651;28;20457;-67
2021/12/08 10:06:20;;;;;;;7.25;2.22;;;5.60;99.90;;;;;;5110278;28;20122;-66
2021/12/08 10:08:47;;;;;;;6.30;2.45;;;5.70;99.90;;;;;;5110573;28;20091;-65
2021/12/08 10:11:14;;;;;;;7.15;2.00;;;5.70;99.90;;;;;;5111459;28;20079;-65
2021/12/08 10:13:40;;;;;;;12.95;2.40;;;5.80;99.90;;;;;;5112261;28;20047;-65
2021/12/08 10:16:07;;;;;;;8.00;2.80;;;5.80;99.90;;;;;;5094071;28;20047;-66
2021/12/08 10:18:33;;;;;;;8.23;2.72;;;5.80;99.90;;;;;;5110260;28;20100;-66
2021/12/08 10:20:59;;;;;;;6.80;2.40;;;5.90;99.90;;;;;;5127435;28;20131;-66
2021/12/08 10:23:37;;;;;;;8.95;2.38;;;6.00;99.90;;;;;;5093323;28;20060;-67
2021/12/08 10:26:09;;;;;;;9.05;2.13;;;5.90;99.90;;;;;;5110706;28;20055;-66
2021/12/08 10:28:44;;;;;;;8.57;2.55;;;5.90;99.90;;;;;;5110302;28;20123;-68
2021/12/08 10:31:13;;;;;;;5.53;2.58;;;5.90;99.90;;;;;;5110562;28;20071;-67
2021/12/08 10:36:43;;;;;;;8.45;2.38;;;5.90;99.90;;;;;;5109649;28;20059;-67
2021/12/08 10:39:21;;;;;;;7.18;2.65;;;6.00;99.90;;;;;;5110404;28;20085;-67
2021/12/08 10:41:52;;;;;;;9.57;2.78;;;6.00;99.90;;;;;;5109777;28;20102;-67
2021/12/08 10:44:48;;;;;;;9.77;2.55;;;6.00;99.90;;;;;;5093220;28;20044;-67
2021/12/08 10:47:36;;;;;;;8.32;2.72;;;6.00;99.90;;;;;;5110298;28;20051;-66
2021/12/08 10:55:33;;;;;;;6.15;1.98;;;6.10;99.90;;;;;;5109777;28;20052;-68
2021/12/08 10:57:59;;;;;;;9.05;2.42;;;6.20;99.90;;;;;;5112388;28;20374;-67
2021/12/08 11:00:29;;;;;;;9.45;2.63;;;6.10;99.90;;;;;;5114642;28;20101;-68
2021/12/08 11:03:16;;;;;;;5.57;2.20;;;6.20;99.90;;;;;;5113451;28;20055;-67
2021/12/08 11:05:57;;;;;;;6.63;2.08;;;6.20;99.90;;;;;;5114195;28;20047;-68
2021/12/08 11:08:30;;;;;;;7.55;2.15;;;6.20;99.90;;;;;;5113793;28;20109;-67
2021/12/08 11:11:05;;;;;;;8.27;1.70;;;6.20;99.90;;;;;;5113957;28;20048;-67
2021/12/08 11:13:38;;;;;;;8.85;2.38;;;6.20;99.90;;;;;;5113094;28;20065;-67
2021/12/08 11:16:11;;;;;;;5.47;2.42;;;6.10;99.90;;;;;;5096563;28;20075;-67
2021/12/08 11:18:39;;;;;;;7.22;1.98;;;6.20;99.90;;;;;;5113201;28;20046;-66
2021/12/08 11:21:18;;;;;;;4.60;2.10;;;6.20;99.90;;;;;;5130698;27;20052;-67
2021/12/08 11:23:46;;;;;;;10.05;3.20;;;6.20;99.90;;;;;;5113026;28;20047;-67
2021/12/08 11:26:18;;;;;;;8.85;2.60;;;6.20;99.90;;;;;;5115046;28;20058;-68
2021/12/08 11:28:50;;;;;;;11.75;2.70;;;6.20;99.90;;;;;;5113314;28;20082;-68
2021/12/08 11:31:17;;;;;;;10.77;2.78;;;6.30;99.90;;;;;;5115277;28;20122;-68
2021/12/08 11:33:50;;;;;;;13.93;2.53;;;6.30;99.90;;;;;;5113370;28;20070;-67
2021/12/08 11:36:24;;;;;;;8.20;2.33;;;6.40;99.90;;;;;;5113784;28;20043;-68
2021/12/08 11:38:51;;;;;;;4.68;2.40;;;6.40;99.90;;;;;;5096881;28;20061;-67
2021/12/08 11:41:34;;;;;;;5.45;1.98;;;6.30;99.90;;;;;;5113216;28;20043;-66
2021/12/08 11:44:01;;;;;;;8.45;2.58;;;6.40;99.90;;;;;;5113727;28;20047;-67
2021/12/08 11:46:26;;;;;;;8.48;3.05;;;6.40;99.90;;;;;;5129155;27;20489;-68
2021/12/08 11:49:04;;;;;;;6.28;2.45;;;6.40;99.90;;;;;;5130660;27;20114;-68
2021/12/08 11:51:32;;;;;;;5.63;2.13;;;6.40;99.90;;;;;;5113340;28;20046;-68
2021/12/08 11:53:59;;;;;;;6.82;2.45;;;6.40;99.90;;;;;;5113374;28;20042;-66
2021/12/08 11:56:37;;;;;;;6.82;2.33;;;6.40;99.90;;;;;;5113378;28;20121;-66
2021/12/08 11:59:06;;;;;;;6.03;2.47;;;6.40;99.90;;;;;;5114376;28;20035;-69
2021/12/08 12:01:32;;;;;;;7.30;2.00;;;6.40;99.90;;;;;;5112731;28;20059;-69
2021/12/08 12:03:58;;;;;;;5.85;2.30;;;6.40;99.90;;;;;;5096055;28;20429;-69
2021/12/08 12:06:28;;;;;;;7.03;2.60;;;6.50;99.90;;;;;;5114214;28;20048;-68
2021/12/08 12:08:59;;;;;;;7.78;2.53;;;6.50;99.90;;;;;;5112218;28;20147;-64
2021/12/08 12:11:29;;;;;;;11.00;2.60;;;6.40;99.90;;;;;;5113977;28;20048;-65
2021/12/08 12:13:57;;;;;;;7.53;2.40;;;6.40;99.90;;;;;;5112772;28;20047;-66
2021/12/08 12:16:24;;;;;;;6.90;2.55;;;6.40;99.90;;;;;;5112999;28;20075;-66
2021/12/08 12:18:53;;;;;;;6.20;2.42;;;6.40;99.90;;;;;;5113776;28;20054;-65
2021/12/08 12:21:37;;;;;;;7.43;3.55;;;6.40;99.90;;;;;;5095967;28;20066;-66
2021/12/08 12:24:32;;;;;;;6.80;1.90;;;6.40;99.90;;;;;;5112895;28;20043;-64
2021/12/08 12:27:23;;;;;;;6.95;2.42;;;6.40;99.90;;;;;;5112730;28;20043;-65
2021/12/08 12:30:11;;;;;;;5.57;1.95;;;6.40;99.90;;;;;;5113442;28;20039;-64
2021/12/08 12:32:49;;;;;;;12.10;2.65;;;6.40;99.90;;;;;;5112355;28;20088;-66
2021/12/08 12:35:32;;;;;;;7.32;2.65;;;6.40;99.90;;;;;;5112089;28;20126;-67
2021/12/08 12:38:03;;;;;;;6.97;2.17;;;6.40;99.90;;;;;;5112313;28;20041;-65
2021/12/08 12:40:34;;;;;;;4.47;2.10;;;6.30;99.90;;;;;;5111665;28;20039;-65
2021/12/08 12:43:00;;;;;;;9.00;2.72;;;6.30;99.90;;;;;;5113536;28;20047;-66
2021/12/08 12:45:39;;;;;;;8.02;2.28;;;6.30;99.90;;;;;;5112227;28;20044;-67
2021/12/08 12:48:08;;;;;;;11.35;2.63;;;6.30;99.90;;;;;;5113202;28;20043;-66
2021/12/08 12:51:05;;;;;;;7.03;2.10;;;6.20;99.90;;;;;;5112933;28;20370;-66
2021/12/08 12:53:32;;;;;;;6.45;2.75;;;6.20;99.90;;;;;;5099934;28;20047;-64
2021/12/08 12:55:58;;;;;;;5.53;2.03;;;6.20;99.90;;;;;;5111646;28;20048;-64
2021/12/08 12:58:37;;;;;;;9.43;3.53;;;6.20;99.90;;;;;;5111556;28;20058;-64
2021/12/08 13:01:09;;;;;;;8.38;2.40;;;6.20;99.90;;;;;;5111638;28;20055;-65
2021/12/08 13:03:34;;;;;;;7.93;1.95;;;6.20;99.90;;;;;;5111657;28;20062;-64
2021/12/08 13:06:01;;;;;;;6.85;2.60;;;6.20;99.90;;;;;;5111462;28;20036;-64
2021/12/08 13:08:36;;;;;;;13.02;2.65;;;6.20;99.90;;;;;;5113023;28;20075;-64
2021/12/08 13:11:27;;;;;;;6.93;2.22;;;6.20;99.90;;;;;;5111979;28;20122;-64
2021/12/08 13:13:54;;;;;;;9.68;2.63;;;6.20;99.90;;;;;;5111689;28;20465;-63
2021/12/08 13:16:24;;;;;;;4.78;2.28;;;6.20;99.90;;;;;;5111431;28;20048;-65
2021/12/08 13:19:03;;;;;;;8.10;2.28;;;6.20;99.90;;;;;;5128607;27;20059;-65
2021/12/08 13:21:49;;;;;;;11.90;2.67;;;6.20;99.90;;;;;;5112625;28;20078;-65
2021/12/08 13:24:38;;;;;;;8.05;2.80;;;6.20;99.90;;;;;;5112669;28;20079;-65
2021/12/08 13:27:08;;;;;;;6.35;2.53;;;6.20;99.90;;;;;;5111468;28;20078;-66
2021/12/08 13:29:38;;;;;;;8.55;2.90;;;6.20;99.90;;;;;;5111114;28;20039;-65
2021/12/08 13:32:15;;;;;;;6.75;2.60;;;6.20;99.90;;;;;;5111196;28;20043;-64
2021/12/08 13:34:58;;;;;;;9.65;2.85;;;6.30;99.90;;;;;;5110930;28;20310;-67
2021/12/08 13:37:29;;;;;;;7.32;2.38;;;6.30;99.90;;;;;;5112222;28;20055;-62
2021/12/08 13:40:07;;;;;;;5.50;1.95;;;6.40;99.90;;;;;;5110785;28;20132;-64
2021/12/08 13:42:50;;;;;;;9.05;2.60;;;6.40;99.90;;;;;;5112227;28;20035;-63
2021/12/08 13:45:17;;;;;;;7.35;2.88;;;6.30;99.90;;;;;;5094293;28;20345;-63
2021/12/08 13:47:46;;;;;;;3.03;1.98;;;6.30;99.90;;;;;;5111917;28;20495;-66
2021/12/08 13:50:14;;;;;;;7.57;2.22;;;6.20;99.90;;;;;;5094116;28;20119;-63
2021/12/08 13:52:43;;;;;;;7.15;2.33;;;6.20;99.90;;;;;;5126916;27;20369;-64
2021/12/08 13:55:09;;;;;;;9.68;2.65;;;6.30;99.90;;;;;;5110884;28;20476;-63
2021/12/08 13:57:34;;;;;;;4.05;2.00;;;6.20;99.90;;;;;;5111466;28;20089;-63
2021/12/08 14:00:17;;;;;;;9.73;2.77;;;6.20;99.90;;;;;;5111416;28;20040;-64
2021/12/08 14:03:01;;;;;;;4.45;2.67;;;6.10;99.90;;;;;;5110190;28;20043;-63